createdAt,value
2024-03-05T00:00:52.378Z,961.2500
2024-03-05T00:01:54.479Z,961.2500
2024-03-05T00:02:56.576Z,961.2900
2024-03-05T00:03:58.757Z,961.2700
2024-03-05T00:05:01.091Z,961.2500
2024-03-05T00:06:03.091Z,961.2700
2024-03-05T00:07:05.311Z,961.2500
2024-03-05T00:08:07.460Z,961.2700
2024-03-05T00:09:09.662Z,961.2500
2024-03-05T00:10:11.882Z,961.2700
2024-03-05T00:11:14.247Z,961.2900
2024-03-05T00:12:16.285Z,961.3100
2024-03-05T00:13:18.336Z,961.2700
2024-03-05T00:14:20.503Z,961.2900
2024-03-05T00:15:22.704Z,961.2900
2024-03-05T00:16:24.961Z,961.3300
2024-03-05T00:17:27.094Z,961.3300
2024-03-05T00:18:29.265Z,961.3300
2024-03-05T00:19:29.377Z,961.3500
2024-03-05T00:20:31.480Z,961.3100
2024-03-05T00:21:33.664Z,961.3300
2024-03-05T00:22:35.912Z,961.3300
2024-03-05T00:23:38.024Z,961.3100
2024-03-05T00:24:40.202Z,961.3300
2024-03-05T00:25:42.437Z,961.3500
2024-03-05T00:26:44.535Z,961.3300
2024-03-05T00:27:47.008Z,961.3100
2024-03-05T00:28:48.991Z,961.3300
2024-03-05T00:29:51.128Z,961.2900
2024-03-05T00:30:53.321Z,961.2900
2024-03-05T00:31:55.586Z,961.2900
2024-03-05T00:32:57.837Z,961.2900
2024-03-05T00:34:00.054Z,961.3100
2024-03-05T00:35:02.277Z,961.3300
2024-03-05T00:36:04.530Z,961.3300
2024-03-05T00:37:04.575Z,961.3100
2024-03-05T00:38:09.781Z,961.3100
2024-03-05T00:39:09.024Z,961.3300
2024-03-05T00:40:11.376Z,961.3100
2024-03-05T00:41:13.549Z,961.3100
2024-03-05T00:42:15.771Z,961.2900
2024-03-05T00:43:18.049Z,961.3300
2024-03-05T00:44:20.264Z,961.3100
2024-03-05T00:45:22.491Z,961.3100
2024-03-05T00:46:24.764Z,961.3100
2024-03-05T00:47:26.954Z,961.3100
2024-03-05T00:48:27.061Z,961.3100
2024-03-05T00:49:29.294Z,961.2900
2024-03-05T00:50:31.525Z,961.3300
2024-03-05T00:51:33.775Z,961.3500
2024-03-05T00:52:36.136Z,961.3500
2024-03-05T00:53:38.250Z,961.3500
2024-03-05T00:54:40.466Z,961.3300
2024-03-05T00:55:42.745Z,961.3300
2024-03-05T00:56:44.953Z,961.3300
2024-03-05T00:57:47.139Z,961.3100
2024-03-05T00:58:47.352Z,961.3300
2024-03-05T00:59:50.050Z,961.3100
2024-03-05T01:00:51.720Z,961.3100
2024-03-05T01:01:53.994Z,961.2900
2024-03-05T01:02:56.182Z,961.2900
2024-03-05T01:03:58.408Z,961.2500
2024-03-05T01:05:00.619Z,961.2700
2024-03-05T01:06:02.819Z,961.2900
2024-03-05T01:07:05.060Z,961.2500
2024-03-05T01:08:07.334Z,961.2700
2024-03-05T01:09:09.542Z,961.3100
2024-03-05T01:10:11.835Z,961.3100
2024-03-05T01:11:11.901Z,961.3500
2024-03-05T01:12:13.009Z,961.3300
2024-03-05T01:13:13.139Z,961.3500
2024-03-05T01:14:15.417Z,961.3700
2024-03-05T01:15:17.595Z,961.3700
2024-03-05T01:16:19.862Z,961.3900
2024-03-05T01:17:22.062Z,961.3700
2024-03-05T01:18:24.301Z,961.3900
2024-03-05T01:19:26.592Z,961.3900
2024-03-05T01:20:28.795Z,961.3900
2024-03-05T01:21:31.051Z,961.4100
2024-03-05T01:22:33.325Z,961.4100
2024-03-05T01:23:35.590Z,961.3900
2024-03-05T01:24:37.817Z,961.4100
2024-03-05T01:25:40.147Z,961.4100
2024-03-05T01:26:42.292Z,961.4100
2024-03-05T01:27:44.523Z,961.3900
2024-03-05T01:28:46.771Z,961.4100
2024-03-05T01:29:48.959Z,961.4100
2024-03-05T01:30:51.125Z,961.4300
2024-03-05T01:31:53.439Z,961.4100
2024-03-05T01:32:55.564Z,961.4300
2024-03-05T01:33:57.750Z,961.4100
2024-03-05T01:34:57.860Z,961.3900
2024-03-05T01:36:00.013Z,961.3700
2024-03-05T01:37:02.208Z,961.3700
2024-03-05T01:38:04.428Z,961.3500
2024-03-05T01:39:06.618Z,961.3700
2024-03-05T01:40:08.833Z,961.3500
2024-03-05T01:41:11.006Z,961.3900
2024-03-05T01:42:13.213Z,961.3900
2024-03-05T01:43:15.482Z,961.4500
2024-03-05T01:44:17.710Z,961.4700
2024-03-05T01:45:20.042Z,961.4700
2024-03-05T01:46:22.245Z,961.4500
2024-03-05T01:47:24.470Z,961.3900
2024-03-05T01:48:26.731Z,961.3700
2024-03-05T01:49:28.998Z,961.3700
2024-03-05T01:50:31.225Z,961.4100
2024-03-05T01:51:33.466Z,961.4100
2024-03-05T01:52:33.639Z,961.4100
2024-03-05T01:53:35.840Z,961.4300
2024-03-05T01:54:38.111Z,961.4100
2024-03-05T01:55:40.457Z,961.3900
2024-03-05T01:56:42.574Z,961.3900
2024-03-05T01:57:44.820Z,961.4100
2024-03-05T01:58:47.182Z,961.4100
2024-03-05T01:59:49.324Z,961.4300
2024-03-05T02:00:51.658Z,961.4100
2024-03-05T02:01:53.867Z,961.3900
2024-03-05T02:02:56.004Z,961.3900
2024-03-05T02:03:58.225Z,961.4100
2024-03-05T02:05:00.504Z,961.4100
2024-03-05T02:06:02.684Z,961.4100
2024-03-05T02:07:04.847Z,961.4100
2024-03-05T02:08:07.053Z,961.4100
2024-03-05T02:09:09.282Z,961.3900
2024-03-05T02:10:09.426Z,961.4100
2024-03-05T02:11:11.774Z,961.4100
2024-03-05T02:12:13.942Z,961.4100
2024-03-05T02:13:16.233Z,961.3900
2024-03-05T02:14:16.351Z,961.3900
2024-03-05T02:15:18.577Z,961.3700
2024-03-05T02:16:20.913Z,961.3500
2024-03-05T02:17:23.064Z,961.3500
2024-03-05T02:18:25.238Z,961.3500
2024-03-05T02:19:25.273Z,961.3700
2024-03-05T02:20:27.422Z,961.3500
2024-03-05T02:21:29.637Z,961.3100
2024-03-05T02:22:31.843Z,961.3300
2024-03-05T02:23:34.044Z,961.3500
2024-03-05T02:24:36.268Z,961.3100
2024-03-05T02:25:38.506Z,961.2900
2024-03-05T02:26:40.696Z,961.3100
2024-03-05T02:27:42.907Z,961.3300
2024-03-05T02:28:45.201Z,961.3300
2024-03-05T02:29:45.187Z,961.3500
2024-03-05T02:30:47.401Z,961.3300
2024-03-05T02:31:49.834Z,961.3300
2024-03-05T02:32:51.893Z,961.3500
2024-03-05T02:33:54.061Z,961.3500
2024-03-05T02:34:56.298Z,961.3700
2024-03-05T02:35:58.461Z,961.3700
2024-03-05T02:37:00.667Z,961.3900
2024-03-05T02:38:02.916Z,961.3900
2024-03-05T02:39:05.064Z,961.3900
2024-03-05T02:40:07.285Z,961.4300
2024-03-05T02:41:09.505Z,961.4300
2024-03-05T02:42:11.757Z,961.4500
2024-03-05T02:43:14.009Z,961.4100
2024-03-05T02:44:16.252Z,961.4300
2024-03-05T02:45:18.446Z,961.4300
2024-03-05T02:46:20.831Z,961.3900
2024-03-05T02:47:22.960Z,961.3900
2024-03-05T02:48:25.132Z,961.4100
2024-03-05T02:49:27.377Z,961.4300
2024-03-05T02:50:29.601Z,961.4500
2024-03-05T02:51:31.872Z,961.4700
2024-03-05T02:52:34.114Z,961.4700
2024-03-05T02:53:36.371Z,961.4500
2024-03-05T02:54:38.719Z,961.4700
2024-03-05T02:55:40.935Z,961.4900
2024-03-05T02:56:43.099Z,961.5300
2024-03-05T02:57:45.625Z,961.5400
2024-03-05T02:58:47.584Z,961.5300
2024-03-05T02:59:49.649Z,961.5400
2024-03-05T03:00:51.842Z,961.5800
2024-03-05T03:01:54.129Z,961.5800
2024-03-05T03:02:56.395Z,961.5800
2024-03-05T03:03:58.428Z,961.6000
2024-03-05T03:05:00.687Z,961.6000
2024-03-05T03:06:00.638Z,961.6000
2024-03-05T03:07:02.843Z,961.6200
2024-03-05T03:08:05.061Z,961.6200
2024-03-05T03:09:07.229Z,961.6200
2024-03-05T03:10:09.436Z,961.6200
2024-03-05T03:11:11.731Z,961.6200
2024-03-05T03:12:13.856Z,961.6400
2024-03-05T03:13:16.131Z,961.6600
2024-03-05T03:14:18.279Z,961.6600
2024-03-05T03:15:20.456Z,961.7000
2024-03-05T03:16:20.545Z,961.7000
2024-03-05T03:17:22.723Z,961.7000
2024-03-05T03:18:25.019Z,961.7000
2024-03-05T03:19:27.176Z,961.7200
2024-03-05T03:20:29.415Z,961.7400
2024-03-05T03:21:29.534Z,961.8000
2024-03-05T03:22:31.873Z,961.8000
2024-03-05T03:23:33.948Z,961.8200
2024-03-05T03:24:36.114Z,961.8400
2024-03-05T03:25:41.959Z,961.9200
2024-03-05T03:26:40.517Z,961.9600
2024-03-05T03:27:42.738Z,961.9400
2024-03-05T03:28:44.993Z,961.9600
2024-03-05T03:29:47.153Z,961.9800
2024-03-05T03:30:49.357Z,962.0000
2024-03-05T03:31:51.620Z,962.0200
2024-03-05T03:32:53.811Z,962.0200
2024-03-05T03:33:55.982Z,962.0200
2024-03-05T03:34:58.133Z,962.0200
2024-03-05T03:36:00.235Z,962.0400
2024-03-05T03:37:00.323Z,962.0600
2024-03-05T03:38:02.506Z,962.0200
2024-03-05T03:39:04.706Z,962.0400
2024-03-05T03:40:06.837Z,962.0600
2024-03-05T03:41:09.030Z,962.0800
2024-03-05T03:42:11.189Z,962.0800
2024-03-05T03:43:13.412Z,962.1000
2024-03-05T03:44:15.578Z,962.1200
2024-03-05T03:45:17.762Z,962.1200
2024-03-05T03:46:20.056Z,962.1400
2024-03-05T03:47:22.069Z,962.1500
2024-03-05T03:48:22.124Z,962.1700
2024-03-05T03:49:24.423Z,962.1500
2024-03-05T03:50:26.539Z,962.1500
2024-03-05T03:51:28.729Z,962.1900
2024-03-05T03:52:30.907Z,962.1900
2024-03-05T03:53:33.092Z,962.2100
2024-03-05T03:54:35.277Z,962.2300
2024-03-05T03:55:37.446Z,962.2100
2024-03-05T03:56:39.583Z,962.1900
2024-03-05T03:57:41.752Z,962.2100
2024-03-05T03:58:43.975Z,962.2300
2024-03-05T03:59:46.117Z,962.2500
2024-03-05T04:00:48.293Z,962.2700
2024-03-05T04:01:50.486Z,962.2500
2024-03-05T04:02:52.638Z,962.2900
2024-03-05T04:03:54.839Z,962.2700
2024-03-05T04:04:57.032Z,962.2900
2024-03-05T04:05:59.170Z,962.3100
2024-03-05T04:07:01.334Z,962.3100
2024-03-05T04:08:05.091Z,962.3300
2024-03-05T04:09:05.690Z,962.3500
2024-03-05T04:10:07.858Z,962.3500
2024-03-05T04:11:10.226Z,962.3100
2024-03-05T04:12:12.176Z,962.3700
2024-03-05T04:13:14.387Z,962.3700
2024-03-05T04:14:16.700Z,962.3700
2024-03-05T04:15:18.755Z,962.3500
2024-03-05T04:16:18.818Z,962.3300
2024-03-05T04:17:21.025Z,962.3500
2024-03-05T04:18:23.216Z,962.2900
2024-03-05T04:19:25.484Z,962.3300
2024-03-05T04:20:27.672Z,962.3300
2024-03-05T04:21:27.679Z,962.3500
2024-03-05T04:22:29.891Z,962.3500
2024-03-05T04:23:32.076Z,962.3700
2024-03-05T04:24:34.254Z,962.3300
2024-03-05T04:25:36.492Z,962.3500
2024-03-05T04:26:38.686Z,962.3500
2024-03-05T04:27:40.956Z,962.3100
2024-03-05T04:28:43.297Z,962.3500
2024-03-05T04:29:45.476Z,962.2700
2024-03-05T04:30:47.685Z,962.3100
2024-03-05T04:31:54.223Z,962.3100
2024-03-05T04:32:59.256Z,962.3100
2024-03-05T04:33:54.506Z,962.3300
2024-03-05T04:34:54.661Z,962.3500
2024-03-05T04:35:56.977Z,962.3500
2024-03-05T04:36:59.692Z,962.3700
2024-03-05T04:38:01.591Z,962.3500
2024-03-05T04:39:03.882Z,962.3900
2024-03-05T04:40:06.156Z,962.3500
2024-03-05T04:41:08.445Z,962.3500
2024-03-05T04:42:10.683Z,962.3500
2024-03-05T04:43:12.895Z,962.3700
2024-03-05T04:44:15.174Z,962.3500
2024-03-05T04:45:17.400Z,962.4100
2024-03-05T04:46:19.646Z,962.4300
2024-03-05T04:47:21.918Z,962.4300
2024-03-05T04:48:24.066Z,962.4700
2024-03-05T04:49:26.391Z,962.4700
2024-03-05T04:50:28.585Z,962.4900
2024-03-05T04:51:30.931Z,962.4300
2024-03-05T04:52:33.269Z,962.4500
2024-03-05T04:53:35.267Z,962.4700
2024-03-05T04:54:37.518Z,962.4900
2024-03-05T04:55:39.765Z,962.4700
2024-03-05T04:56:41.968Z,962.4700
2024-03-05T04:57:44.241Z,962.4700
2024-03-05T04:58:44.310Z,962.4900
2024-03-05T04:59:47.476Z,962.5100
2024-03-05T05:00:48.805Z,962.5100
2024-03-05T05:02:40.392Z,962.5800
2024-03-05T05:03:42.482Z,962.5600
2024-03-05T05:04:44.694Z,962.5400
2024-03-05T05:05:46.858Z,962.5600
2024-03-05T05:06:49.136Z,962.5600
2024-03-05T05:07:51.290Z,962.5400
2024-03-05T05:08:53.454Z,962.5600
2024-03-05T05:09:55.690Z,962.5800
2024-03-05T05:10:57.957Z,962.5800
2024-03-05T05:12:00.142Z,962.6000
2024-03-05T05:13:02.254Z,962.6600
2024-03-05T05:14:04.476Z,962.6000
2024-03-05T05:15:06.686Z,962.6400
2024-03-05T05:16:08.845Z,962.6600
2024-03-05T05:17:11.063Z,962.6400
2024-03-05T05:18:11.148Z,962.6400
2024-03-05T05:19:13.350Z,962.6600
2024-03-05T05:20:15.539Z,962.6000
2024-03-05T05:21:17.651Z,962.5800
2024-03-05T05:22:19.912Z,962.5800
2024-03-05T05:23:21.993Z,962.6200
2024-03-05T05:24:24.179Z,962.6000
2024-03-05T05:25:26.424Z,962.6200
2024-03-05T05:26:28.554Z,962.6000
2024-03-05T05:27:30.766Z,962.6200
2024-03-05T05:28:33.005Z,962.6400
2024-03-05T05:29:40.643Z,962.6800
2024-03-05T05:30:37.352Z,962.6200
2024-03-05T05:31:39.536Z,962.6200
2024-03-05T05:32:41.996Z,962.6400
2024-03-05T05:33:43.950Z,962.6400
2024-03-05T05:34:46.153Z,962.6400
2024-03-05T05:35:48.347Z,962.7000
2024-03-05T05:36:48.387Z,962.6800
2024-03-05T05:37:50.648Z,962.6600
2024-03-05T05:38:52.773Z,962.7400
2024-03-05T05:39:54.985Z,962.7000
2024-03-05T05:40:57.321Z,962.7000
2024-03-05T05:43:29.601Z,962.7000
2024-03-05T05:44:31.731Z,962.6600
2024-03-05T05:45:33.935Z,962.6600
2024-03-05T05:46:36.295Z,962.7000
2024-03-05T05:47:38.437Z,962.6400
2024-03-05T05:48:40.670Z,962.6800
2024-03-05T05:49:42.918Z,962.7400
2024-03-05T05:50:45.088Z,962.6800
2024-03-05T05:51:45.191Z,962.7200
2024-03-05T05:52:47.423Z,962.7000
2024-03-05T05:53:49.645Z,962.6800
2024-03-05T05:54:51.880Z,962.7000
2024-03-05T05:55:54.140Z,962.6800
2024-03-05T05:56:56.273Z,962.7200
2024-03-05T05:57:58.911Z,962.7200
2024-03-05T05:59:00.821Z,962.7400
2024-03-05T06:00:02.861Z,962.7600
2024-03-05T06:01:05.048Z,962.7600
2024-03-05T06:02:07.371Z,962.7600
2024-03-05T06:03:09.680Z,962.7400
2024-03-05T06:04:11.676Z,962.7600
2024-03-05T06:05:13.889Z,962.8400
2024-03-05T06:06:16.071Z,962.8600
2024-03-05T06:07:16.224Z,962.8400
2024-03-05T06:08:18.370Z,962.8800
2024-03-05T06:09:20.604Z,962.9000
2024-03-05T06:10:22.859Z,962.9200
2024-03-05T06:11:25.069Z,962.9000
2024-03-05T06:12:27.277Z,962.8600
2024-03-05T06:13:29.512Z,962.8800
2024-03-05T06:14:31.750Z,962.9200
2024-03-05T06:15:33.945Z,962.9000
2024-03-05T06:16:36.337Z,962.9800
2024-03-05T06:17:38.382Z,962.9400
2024-03-05T06:18:40.489Z,962.9200
2024-03-05T06:19:42.746Z,962.9600
2024-03-05T06:20:44.922Z,962.9800
2024-03-05T06:21:44.979Z,962.9800
2024-03-05T06:22:47.284Z,963.0000
2024-03-05T06:23:49.410Z,962.9600
2024-03-05T06:24:51.633Z,962.9600
2024-03-05T06:25:53.819Z,963.0300
2024-03-05T06:26:56.021Z,963.0100
2024-03-05T06:27:58.239Z,963.0100
2024-03-05T06:29:00.450Z,963.0000
2024-03-05T06:30:02.527Z,962.9800
2024-03-05T06:31:04.683Z,963.0000
2024-03-05T06:32:06.934Z,963.0100
2024-03-05T06:33:09.143Z,962.9800
2024-03-05T06:34:11.180Z,962.9800
2024-03-05T06:35:13.404Z,963.0000
2024-03-05T06:36:15.527Z,963.0100
2024-03-05T06:37:17.722Z,963.0300
2024-03-05T06:38:19.837Z,963.0500
2024-03-05T06:39:21.955Z,963.0500
2024-03-05T06:40:25.133Z,963.0500
2024-03-05T06:41:26.173Z,963.0900
2024-03-05T06:42:28.313Z,963.1100
2024-03-05T06:43:30.503Z,963.1300
2024-03-05T06:44:32.587Z,963.1100
2024-03-05T06:45:34.751Z,963.1100
2024-03-05T06:46:36.905Z,963.1100
2024-03-05T06:47:39.058Z,963.1100
2024-03-05T06:48:41.203Z,963.1100
2024-03-05T06:49:43.348Z,963.1500
2024-03-05T06:50:45.399Z,963.1100
2024-03-05T06:51:47.545Z,963.1100
2024-03-05T06:52:49.779Z,963.1300
2024-03-05T06:53:51.894Z,963.1300
2024-03-05T06:54:53.973Z,963.1500
2024-03-05T06:55:56.358Z,963.1700
2024-03-05T06:56:58.270Z,963.2300
2024-03-05T06:58:00.520Z,963.2500
2024-03-05T06:59:02.819Z,963.2700
2024-03-05T07:00:04.858Z,963.2700
2024-03-05T07:01:07.115Z,963.2900
2024-03-05T07:02:07.140Z,963.3100
2024-03-05T07:03:09.267Z,963.3100
2024-03-05T07:04:11.512Z,963.2900
2024-03-05T07:05:13.780Z,963.3300
2024-03-05T07:06:15.998Z,963.3300
2024-03-05T07:07:18.312Z,963.3100
2024-03-05T07:08:20.509Z,963.3300
2024-03-05T07:09:22.771Z,963.3300
2024-03-05T07:10:25.032Z,963.3500
2024-03-05T07:11:27.366Z,963.3700
2024-03-05T07:12:28.366Z,963.3900
2024-03-05T07:13:30.635Z,963.4100
2024-03-05T07:14:32.838Z,963.4300
2024-03-05T07:15:32.911Z,963.3900
2024-03-05T07:16:35.189Z,963.4300
2024-03-05T07:17:37.456Z,963.4500
2024-03-05T07:18:39.645Z,963.4300
2024-03-05T07:19:41.916Z,963.4500
2024-03-05T07:20:44.099Z,963.4800
2024-03-05T07:21:46.281Z,963.4800
2024-03-05T07:22:48.580Z,963.5000
2024-03-05T07:23:50.747Z,963.5000
2024-03-05T07:24:53.003Z,963.5200
2024-03-05T07:25:55.331Z,963.5000
2024-03-05T07:27:04.639Z,963.5200
2024-03-05T07:27:59.659Z,963.5200
2024-03-05T07:29:02.029Z,963.5200
2024-03-05T07:30:04.080Z,963.5600
2024-03-05T07:31:06.279Z,963.5400
2024-03-05T07:32:08.545Z,963.5000
2024-03-05T07:33:10.766Z,963.5000
2024-03-05T07:34:12.925Z,963.5000
2024-03-05T07:35:15.162Z,963.4800
2024-03-05T07:36:17.343Z,963.4800
2024-03-05T07:37:19.578Z,963.5000
2024-03-05T07:38:21.748Z,963.5400
2024-03-05T07:39:23.963Z,963.4500
2024-03-05T07:40:26.230Z,963.5000
2024-03-05T07:41:33.827Z,963.5000
2024-03-05T07:42:30.597Z,963.5000
2024-03-05T07:43:32.911Z,963.5600
2024-03-05T07:44:34.986Z,963.5400
2024-03-05T07:45:37.235Z,963.5200
2024-03-05T07:46:39.479Z,963.5200
2024-03-05T07:47:41.664Z,963.5200
2024-03-05T07:48:43.872Z,963.5400
2024-03-05T07:49:46.081Z,963.5800
2024-03-05T07:50:48.339Z,963.5800
2024-03-05T07:51:48.352Z,963.6200
2024-03-05T07:52:50.628Z,963.6400
2024-03-05T07:53:52.867Z,963.6200
2024-03-05T07:54:55.045Z,963.6600
2024-03-05T07:55:57.406Z,963.6800
2024-03-05T07:56:59.602Z,963.6800
2024-03-05T07:58:01.820Z,963.7000
2024-03-05T07:59:04.060Z,963.7600
2024-03-05T08:00:06.237Z,963.7400
2024-03-05T08:01:06.345Z,963.7400
2024-03-05T08:02:08.441Z,963.7400
2024-03-05T08:03:10.578Z,963.7400
2024-03-05T08:04:12.773Z,963.7400
2024-03-05T08:05:14.958Z,963.7400
2024-03-05T08:06:17.148Z,963.7600
2024-03-05T08:07:17.305Z,963.7600
2024-03-05T08:08:19.399Z,963.7400
2024-03-05T08:09:21.588Z,963.7400
2024-03-05T08:10:23.907Z,963.7800
2024-03-05T08:11:26.015Z,963.8000
2024-03-05T08:12:28.190Z,963.8400
2024-03-05T08:13:30.443Z,963.8000
2024-03-05T08:14:32.630Z,963.8000
2024-03-05T08:15:34.857Z,963.8000
2024-03-05T08:16:37.113Z,963.8200
2024-03-05T08:17:39.334Z,963.8200
2024-03-05T08:18:41.454Z,963.8400
2024-03-05T08:19:43.713Z,963.8200
2024-03-05T08:20:45.891Z,963.8200
2024-03-05T08:21:45.957Z,963.8400
2024-03-05T08:22:48.323Z,963.8400
2024-03-05T08:23:50.448Z,963.8600
2024-03-05T08:24:52.693Z,963.8400
2024-03-05T08:25:55.031Z,963.8600
2024-03-05T08:26:57.160Z,963.8800
2024-03-05T08:27:59.758Z,963.9000
2024-03-05T08:29:01.719Z,963.9200
2024-03-05T08:30:03.857Z,963.9000
2024-03-05T08:31:06.061Z,963.8800
2024-03-05T08:32:08.286Z,963.9000
2024-03-05T08:33:10.479Z,963.8400
2024-03-05T08:34:12.626Z,963.9400
2024-03-05T08:35:14.838Z,963.9200
2024-03-05T08:36:17.152Z,963.9200
2024-03-05T08:37:19.316Z,963.9500
2024-03-05T08:38:21.482Z,963.9700
2024-03-05T08:39:23.672Z,963.9400
2024-03-05T08:40:23.780Z,963.9900
2024-03-05T08:41:25.946Z,964.0100
2024-03-05T08:42:28.111Z,964.0100
2024-03-05T08:43:30.368Z,963.9900
2024-03-05T08:44:32.533Z,963.9900
2024-03-05T08:45:34.646Z,964.0100
2024-03-05T08:46:34.693Z,964.0100
2024-03-05T08:47:36.841Z,964.0300
2024-03-05T08:48:38.995Z,964.0500
2024-03-05T08:49:41.165Z,964.0700
2024-03-05T08:50:43.301Z,964.1100
2024-03-05T08:51:45.524Z,964.0900
2024-03-05T08:52:45.698Z,964.0900
2024-03-05T08:53:47.897Z,964.0900
2024-03-05T08:54:50.089Z,964.1300
2024-03-05T08:55:52.393Z,964.0900
2024-03-05T08:56:54.621Z,964.1100
2024-03-05T08:57:56.788Z,964.0900
2024-03-05T08:58:59.039Z,964.0900
2024-03-05T09:00:06.735Z,964.0900
2024-03-05T09:01:03.388Z,964.1300
2024-03-05T09:02:05.616Z,964.1300
2024-03-05T09:03:07.732Z,964.1500
2024-03-05T09:04:09.957Z,964.1500
2024-03-05T09:05:12.199Z,964.1500
2024-03-05T09:06:14.328Z,964.1700
2024-03-05T09:07:16.461Z,964.1700
2024-03-05T09:08:18.660Z,964.1700
2024-03-05T09:09:20.852Z,964.1700
2024-03-05T09:10:23.070Z,964.1900
2024-03-05T09:11:25.249Z,964.2300
2024-03-05T09:12:27.428Z,964.2500
2024-03-05T09:13:29.637Z,964.2500
2024-03-05T09:14:31.874Z,964.2100
2024-03-05T09:15:34.097Z,964.2100
2024-03-05T09:16:36.327Z,964.2300
2024-03-05T09:17:38.578Z,964.2300
2024-03-05T09:18:40.709Z,964.2500
2024-03-05T09:19:42.955Z,964.2500
2024-03-05T09:20:45.128Z,964.2900
2024-03-05T09:21:45.177Z,964.2900
2024-03-05T09:22:47.935Z,964.2700
2024-03-05T09:23:49.580Z,964.3500
2024-03-05T09:26:09.090Z,964.3500
2024-03-05T09:27:11.215Z,964.3100
2024-03-05T09:28:11.257Z,964.3100
2024-03-05T09:29:14.942Z,964.2900
2024-03-05T09:30:15.725Z,964.2700
2024-03-05T09:31:17.825Z,964.2900
2024-03-05T09:32:19.782Z,964.2900
2024-03-05T09:33:21.961Z,964.2700
2024-03-05T09:34:24.116Z,964.2700
2024-03-05T09:35:26.286Z,964.2700
2024-03-05T09:36:28.385Z,964.2500
2024-03-05T09:37:30.556Z,964.2300
2024-03-05T09:38:32.653Z,964.2300
2024-03-05T09:39:34.801Z,964.1900
2024-03-05T09:40:37.018Z,964.1900
2024-03-05T09:41:39.134Z,964.1700
2024-03-05T09:42:41.274Z,964.1500
2024-03-05T09:43:43.478Z,964.1700
2024-03-05T09:44:45.657Z,964.1900
2024-03-05T09:45:47.844Z,964.2100
2024-03-05T09:46:50.046Z,964.2100
2024-03-05T09:47:52.134Z,964.2300
2024-03-05T09:48:55.487Z,964.2100
2024-03-05T09:49:56.469Z,964.2100
2024-03-05T09:50:58.615Z,964.2100
2024-03-05T09:52:00.880Z,964.2100
2024-03-05T09:53:03.128Z,964.1900
2024-03-05T09:54:05.141Z,964.1900
2024-03-05T09:55:07.395Z,964.2300
2024-03-05T09:56:09.691Z,964.2500
2024-03-05T09:57:11.695Z,964.1900
2024-03-05T09:58:13.860Z,964.1900
2024-03-05T09:59:16.035Z,964.2300
2024-03-05T10:00:18.174Z,964.2300
2024-03-05T10:01:20.342Z,964.2100
2024-03-05T10:02:22.545Z,964.2100
2024-03-05T10:03:24.634Z,964.2300
2024-03-05T10:04:26.846Z,964.1900
2024-03-05T10:05:29.045Z,964.1900
2024-03-05T10:06:31.163Z,964.2100
2024-03-05T10:07:31.305Z,964.2100
2024-03-05T10:09:08.797Z,964.1900
2024-03-05T10:10:10.947Z,964.2100
2024-03-05T10:11:13.208Z,964.1700
2024-03-05T10:12:15.273Z,964.1900
2024-03-05T10:13:17.414Z,964.1500
2024-03-05T10:14:19.567Z,964.1500
2024-03-05T10:15:21.839Z,964.1300
2024-03-05T10:16:21.757Z,964.1500
2024-03-05T10:17:24.018Z,964.1500
2024-03-05T10:18:26.183Z,964.1700
2024-03-05T10:19:28.378Z,964.1700
2024-03-05T10:20:30.601Z,964.1700
2024-03-05T10:21:32.775Z,964.1500
2024-03-05T10:22:32.927Z,964.1500
2024-03-05T10:23:35.109Z,964.1300
2024-03-05T10:24:37.296Z,964.1300
2024-03-05T10:25:39.545Z,964.1100
2024-03-05T10:26:41.742Z,964.1300
2024-03-05T10:27:43.942Z,964.0900
2024-03-05T10:28:46.231Z,964.0700
2024-03-05T10:29:48.391Z,964.0900
2024-03-05T10:30:48.450Z,964.0700
2024-03-05T10:31:50.663Z,964.0700
2024-03-05T10:32:52.808Z,964.0700
2024-03-05T10:33:55.084Z,964.0900
2024-03-05T10:34:57.358Z,964.1100
2024-03-05T10:35:59.445Z,964.1100
2024-03-05T10:37:01.690Z,964.1100
2024-03-05T10:38:03.965Z,964.1300
2024-03-05T10:39:06.124Z,964.1300
2024-03-05T10:40:08.341Z,964.1500
2024-03-05T10:41:10.585Z,964.1300
2024-03-05T10:42:12.713Z,964.1500
2024-03-05T10:43:14.911Z,964.1500
2024-03-05T10:44:17.291Z,964.1300
2024-03-05T10:45:19.367Z,964.1300
2024-03-05T10:46:21.620Z,964.1500
2024-03-05T10:47:25.936Z,964.1500
2024-03-05T10:48:26.199Z,964.1300
2024-03-05T10:49:28.371Z,964.1500
2024-03-05T10:50:30.520Z,964.1300
2024-03-05T10:51:32.769Z,964.1500
2024-03-05T10:52:35.016Z,964.2100
2024-03-05T10:53:37.207Z,964.1900
2024-03-05T10:54:39.485Z,964.1700
2024-03-05T10:55:40.574Z,964.1900
2024-03-05T10:56:44.767Z,964.2100
2024-03-05T10:57:43.937Z,964.1900
2024-03-05T10:58:46.157Z,964.2100
2024-03-05T10:59:48.285Z,964.1700
2024-03-05T11:00:50.458Z,964.1300
2024-03-05T11:01:52.621Z,964.1300
2024-03-05T11:02:54.798Z,964.1300
2024-03-05T11:03:57.035Z,964.1500
2024-03-05T11:04:59.429Z,964.1100
2024-03-05T11:06:01.513Z,964.1300
2024-03-05T11:07:03.759Z,964.1300
2024-03-05T11:08:06.116Z,964.0900
2024-03-05T11:09:08.268Z,964.0900
2024-03-05T11:10:10.537Z,964.0500
2024-03-05T11:11:10.780Z,964.0300
2024-03-05T11:12:12.788Z,964.0100
2024-03-05T11:13:14.994Z,963.9900
2024-03-05T11:14:17.286Z,964.0100
2024-03-05T11:15:19.438Z,963.9900
2024-03-05T11:16:21.788Z,963.9500
2024-03-05T11:17:23.915Z,963.9500
2024-03-05T11:18:26.016Z,963.9500
2024-03-05T11:19:28.292Z,963.9400
2024-03-05T11:20:30.507Z,963.9500
2024-03-05T11:21:32.698Z,963.9500
2024-03-05T11:22:34.886Z,963.9400
2024-03-05T11:23:37.071Z,963.9200
2024-03-05T11:24:39.249Z,963.9400
2024-03-05T11:25:41.453Z,963.9000
2024-03-05T11:26:43.603Z,963.9000
2024-03-05T11:27:43.693Z,963.9000
2024-03-05T11:28:45.966Z,963.9000
2024-03-05T11:29:48.149Z,963.8800
2024-03-05T11:30:50.349Z,963.9000
2024-03-05T11:31:52.605Z,963.8600
2024-03-05T11:32:54.821Z,963.8800
2024-03-05T11:33:56.984Z,963.8800
2024-03-05T11:34:59.282Z,963.8600
2024-03-05T11:36:01.380Z,963.8800
2024-03-05T11:37:03.558Z,963.8800
2024-03-05T11:38:05.812Z,963.8800
2024-03-05T11:39:07.984Z,963.9000
2024-03-05T11:40:11.746Z,963.9200
2024-03-05T11:41:12.500Z,963.9400
2024-03-05T11:42:14.714Z,963.9000
2024-03-05T11:43:14.803Z,963.9200
2024-03-05T11:44:17.035Z,963.9200
2024-03-05T11:45:19.295Z,963.9400
2024-03-05T11:46:21.573Z,963.9500
2024-03-05T11:47:23.825Z,963.9500
2024-03-05T11:48:25.952Z,963.9500
2024-03-05T11:49:28.188Z,963.9900
2024-03-05T11:50:30.356Z,964.0100
2024-03-05T11:51:32.566Z,963.9900
2024-03-05T11:52:34.784Z,964.0300
2024-03-05T11:53:36.978Z,964.0100
2024-03-05T11:54:39.158Z,964.0100
2024-03-05T11:55:41.391Z,964.0300
2024-03-05T11:56:41.394Z,964.0500
2024-03-05T11:57:43.587Z,964.0700
2024-03-05T11:58:45.802Z,964.0700
2024-03-05T11:59:47.870Z,964.0700
2024-03-05T12:00:49.992Z,964.0700
2024-03-05T12:01:52.148Z,964.0700
2024-03-05T12:02:54.223Z,964.0700
2024-03-05T12:03:56.291Z,964.0700
2024-03-05T12:04:58.445Z,964.0700
2024-03-05T12:06:00.505Z,964.0700
2024-03-05T12:07:02.691Z,964.0500
2024-03-05T12:08:04.911Z,964.0500
2024-03-05T12:09:07.086Z,964.0900
2024-03-05T12:10:07.098Z,964.0900
2024-03-05T12:11:09.393Z,964.0700
2024-03-05T12:12:11.509Z,964.0700
2024-03-05T12:13:13.737Z,964.0500